Terminal Aerodrome Forecast
Issued by NWS Louisville, KY

Home | Current Version | Previous Version | Text Only | Print | Product List | Glossary On
Versions: 1 2 3 4 5 6 7 8 9 10 11 12 13 14 15 16 17 18
000
FTUS43 KLMK 162200 AAA
TAFLEX
TAF AMD
KLEX 162253Z 1623/1718 26010G15KT 6SM -DZ OVC014
     FM170600 27008KT P6SM OVC012
     FM171600 28007KT P6SM OVC018=

USA.gov is the U.S. government's official web portal to all federal, state and local government web resources and services.